Terminal Aerodrome Forecast
Issued by NWS Wilmington, OH

Current Version | Previous Version | Graphics & Text | Print | Product List | Glossary On
Versions: 1 2 3 4 5 6 7 8 9 10 11 12 13 14 15 16 17 18 19 20 21 22 23 24 25 26
000
FTUS41 KILN 222300
TAFILN
TAF
KILN 222337Z 2300/2324 32007KT P6SM SKC
     FM231000 VRB03KT P6SM SKC
      TEMPO 2310/2312 5SM BR
     FM231400 06005KT P6SM FEW040=

USA.gov is the U.S. government's official web portal to all federal, state and local government web resources and services.